Time;durP1;ratioP1;P1;durP2;ratioP2;P2;SDS_P1;SDS_P2;PMS_P1;PMS_P2;Temp;Humidity;BMP_temperature;BMP_pressure;BME280_temperature;BME280_humidity;BME280_pressure;Samples;Min_cycle;Max_cycle;Signal;HPM_P1;HPM_P2
2023/05/22 00:01:05;;;;;;;7.05;5.28;;;;;;;15.93;57.05;94724.66;5066822;28;20056;-75
2023/05/22 00:03:32;;;;;;;8.20;5.13;;;;;;;15.96;57.25;94732.03;5067359;28;20495;-75
2023/05/22 00:05:57;;;;;;;6.30;4.78;;;;;;;16.01;57.00;94738.94;5065063;28;20217;-75
2023/05/22 00:08:26;;;;;;;14.73;7.60;;;;;;;16.01;57.04;94728.59;5068689;28;20166;-75
2023/05/22 00:10:52;;;;;;;6.85;5.22;;;;;;;15.98;57.17;94720.47;5065542;28;20048;-75
2023/05/22 00:13:17;;;;;;;8.07;5.32;;;;;;;16.04;57.12;94732.41;5066624;28;20067;-75
2023/05/22 00:15:43;;;;;;;7.07;5.57;;;;;;;16.05;57.04;94729.16;5066939;28;20024;-76
2023/05/22 00:18:08;;;;;;;9.05;4.97;;;;;;;16.06;56.69;94727.94;5066957;28;20453;-76
2023/05/22 00:20:37;;;;;;;7.57;4.85;;;;;;;16.05;56.56;94725.63;5067190;28;20119;-75
2023/05/22 00:23:03;;;;;;;8.00;5.82;;;;;;;16.08;56.69;94727.47;5064836;28;20486;-75
2023/05/22 00:25:29;;;;;;;9.52;5.35;;;;;;;16.11;56.59;94730.03;5068372;28;20028;-76
2023/05/22 00:27:54;;;;;;;8.43;6.00;;;;;;;16.13;56.86;94735.09;5066155;28;20415;-74
2023/05/22 00:30:20;;;;;;;6.97;5.40;;;;;;;16.16;56.58;94736.91;5066656;28;20395;-75
2023/05/22 00:32:45;;;;;;;7.97;5.30;;;;;;;16.12;56.42;94737.13;5070333;28;20111;-75
2023/05/22 00:35:10;;;;;;;7.85;5.10;;;;;;;16.14;56.31;94739.41;5048858;28;20024;-75
2023/05/22 00:37:36;;;;;;;7.00;5.90;;;;;;;16.16;56.44;94742.47;5068259;28;20498;-76
2023/05/22 00:40:02;;;;;;;6.95;5.47;;;;;;;16.14;56.49;94740.16;5047760;28;20027;-75
2023/05/22 00:42:28;;;;;;;8.07;5.93;;;;;;;16.14;56.49;94745.72;5067614;28;20028;-75
2023/05/22 00:44:53;;;;;;;6.88;5.35;;;;;;;16.10;56.34;94738.81;5064453;28;20021;-75
2023/05/22 00:47:19;;;;;;;7.70;5.85;;;;;;;16.11;56.38;94746.66;5067836;28;20035;-76
2023/05/22 00:49:46;;;;;;;6.55;5.30;;;;;;;16.13;56.26;94746.97;5065079;28;20032;-76
2023/05/22 00:52:12;;;;;;;9.07;5.55;;;;;;;16.12;56.40;94742.66;5066991;28;20055;-75
2023/05/22 00:54:37;;;;;;;5.95;5.13;;;;;;;16.12;56.58;94741.91;5066185;28;20367;-76
2023/05/22 00:57:03;;;;;;;8.23;5.07;;;;;;;16.05;56.43;94748.56;5065738;28;20069;-76
2023/05/22 00:59:29;;;;;;;6.80;5.43;;;;;;;16.03;56.66;94745.53;5066443;28;20055;-76
2023/05/22 01:01:56;;;;;;;8.70;6.47;;;;;;;16.03;56.62;94731.66;5065021;28;20408;-74
2023/05/22 01:04:21;;;;;;;8.98;5.80;;;;;;;16.09;56.15;94728.97;5067523;28;20026;-75
2023/05/22 01:06:47;;;;;;;7.45;5.85;;;;;;;16.09;56.32;94729.75;5064238;28;20020;-75
2023/05/22 01:09:15;;;;;;;8.68;6.43;;;;;;;16.08;56.47;94728.22;5065851;28;20475;-75
2023/05/22 01:12:02;;;;;;;10.57;6.03;;;;;;;16.09;56.65;94731.75;5065167;28;20399;-75
2023/05/22 01:15:07;;;;;;;7.07;5.75;;;;;;;15.96;56.82;94728.50;5047521;28;20447;-74
2023/05/22 01:17:47;;;;;;;9.38;5.88;;;;;;;15.91;56.75;94732.69;5063334;28;20051;-76
2023/05/22 01:20:37;;;;;;;6.78;5.57;;;;;;;15.89;56.84;94726.88;5064818;28;20025;-75
2023/05/22 01:23:18;;;;;;;8.23;6.03;;;;;;;15.90;57.17;94726.41;5063967;28;20028;-75
2023/05/22 01:26:18;;;;;;;7.13;5.95;;;;;;;15.89;56.98;94724.09;5066592;28;20021;-75
2023/05/22 01:28:52;;;;;;;8.32;6.32;;;;;;;15.88;57.09;94720.53;5066152;28;20025;-76
2023/05/22 01:31:26;;;;;;;7.03;5.80;;;;;;;15.87;57.34;94732.13;5065773;28;20025;-76
2023/05/22 01:33:56;;;;;;;8.23;5.97;;;;;;;15.87;57.07;94727.34;5065907;28;20178;-76
2023/05/22 01:36:25;;;;;;;6.82;5.97;;;;;;;15.85;57.14;94727.06;5063445;28;20054;-75
2023/05/22 01:38:51;;;;;;;7.90;5.93;;;;;;;15.84;57.17;94727.53;5066084;28;20032;-76
2023/05/22 01:41:17;;;;;;;7.13;6.00;;;;;;;15.81;57.28;94720.94;5064914;28;20063;-76
2023/05/22 01:43:44;;;;;;;9.95;5.50;;;;;;;15.76;57.53;94716.03;5066997;28;20028;-75
2023/05/22 01:46:09;;;;;;;7.85;6.72;;;;;;;15.76;57.57;94721.59;5064341;28;20067;-76
2023/05/22 01:48:35;;;;;;;7.90;6.28;;;;;;;15.77;57.46;94723.16;5066171;28;20053;-74
2023/05/22 01:51:06;;;;;;;8.77;6.22;;;;;;;15.73;57.43;94719.03;5066860;28;20035;-75
2023/05/22 01:53:41;;;;;;;8.13;6.38;;;;;;;15.69;57.49;94718.44;5063743;28;20021;-76
2023/05/22 01:56:14;;;;;;;9.93;6.53;;;;;;;15.68;57.75;94714.13;5065412;28;20028;-76
2023/05/22 01:58:55;;;;;;;7.53;6.45;;;;;;;15.63;57.92;94715.56;5047026;28;20111;-77
2023/05/22 02:01:21;;;;;;;7.60;5.97;;;;;;;15.61;58.04;94721.56;5048139;28;20032;-75
2023/05/22 02:03:50;;;;;;;8.52;6.47;;;;;;;15.59;58.13;94714.94;5065443;28;20028;-75
2023/05/22 02:06:16;;;;;;;11.32;6.20;;;;;;;15.57;57.95;94712.66;5063780;28;20020;-76
2023/05/22 02:08:41;;;;;;;9.15;6.90;;;;;;;15.54;58.29;94715.59;5048770;28;20048;-74
2023/05/22 02:11:09;;;;;;;8.38;6.82;;;;;;;15.44;58.10;94698.31;5063285;28;20375;-76
2023/05/22 02:13:34;;;;;;;10.77;6.60;;;;;;;15.47;58.26;94711.19;5065483;28;20031;-76
2023/05/22 02:16:00;;;;;;;8.75;6.80;;;;;;;15.46;58.36;94717.22;5064900;28;20024;-75
2023/05/22 02:18:29;;;;;;;7.80;6.88;;;;;;;15.43;58.30;94709.88;5065033;28;20036;-74
2023/05/22 02:20:58;;;;;;;9.07;6.70;;;;;;;15.38;58.52;94722.34;5066357;28;20414;-75
2023/05/22 02:23:24;;;;;;;9.98;6.50;;;;;;;15.30;58.53;94707.31;5050092;28;20028;-75
2023/05/22 02:25:49;;;;;;;13.27;7.25;;;;;;;15.26;58.76;94717.84;5065242;28;20051;-77
2023/05/22 02:28:15;;;;;;;7.57;6.50;;;;;;;15.24;58.72;94715.53;5064481;28;20547;-76
2023/05/22 02:30:41;;;;;;;8.15;6.75;;;;;;;15.22;58.92;94728.31;5065448;28;20036;-75
2023/05/22 02:33:08;;;;;;;13.35;7.38;;;;;;;15.13;59.16;94723.59;5064403;28;20036;-76
2023/05/22 02:35:33;;;;;;;9.90;7.88;;;;;;;15.06;59.35;94713.66;5048486;28;20082;-76
2023/05/22 02:37:59;;;;;;;11.80;8.25;;;;;;;15.06;59.48;94719.19;5047225;28;20032;-76
2023/05/22 02:40:24;;;;;;;10.10;7.72;;;;;;;15.06;59.31;94715.66;5047379;28;20029;-75
2023/05/22 02:42:49;;;;;;;10.02;7.47;;;;;;;15.03;59.39;94725.69;5066439;28;20029;-75
2023/05/22 02:45:15;;;;;;;13.32;7.82;;;;;;;14.98;59.47;94718.00;5064254;28;20451;-76
2023/05/22 02:47:42;;;;;;;9.23;7.80;;;;;;;14.96;59.92;94728.00;5065238;28;20028;-76
2023/05/22 02:50:08;;;;;;;17.08;8.00;;;;;;;14.91;59.98;94715.59;5063095;28;20025;-76
2023/05/22 02:52:35;;;;;;;11.73;7.88;;;;;;;14.88;59.94;94720.06;5064715;28;20027;-74
2023/05/22 02:55:03;;;;;;;12.50;8.30;;;;;;;14.84;60.08;94724.22;5064893;28;20047;-76
2023/05/22 02:57:29;;;;;;;13.50;8.50;;;;;;;14.82;60.07;94713.63;5066073;28;20042;-75
2023/05/22 02:59:54;;;;;;;16.25;8.82;;;;;;;14.80;60.16;94709.81;5064504;28;20526;-76
2023/05/22 03:02:19;;;;;;;11.07;8.93;;;;;;;14.76;60.37;94717.53;5062996;28;20047;-75
2023/05/22 03:04:45;;;;;;;16.08;8.93;;;;;;;14.68;60.55;94711.56;5067011;28;20745;-75
2023/05/22 03:07:11;;;;;;;13.68;8.57;;;;;;;14.69;60.54;94715.09;5067938;28;20032;-74
2023/05/22 03:09:36;;;;;;;17.40;9.93;;;;;;;14.63;60.59;94712.22;5068310;28;20029;-74
2023/05/22 03:12:03;;;;;;;15.50;8.93;;;;;;;14.61;60.65;94707.13;5068000;28;20020;-76
2023/05/22 03:14:30;;;;;;;16.30;11.32;;;;;;;14.61;60.66;94714.66;5068563;28;20491;-76
2023/05/22 03:16:57;;;;;;;16.60;9.95;;;;;;;14.60;60.42;94715.91;5069992;28;20021;-74
2023/05/22 03:19:23;;;;;;;19.27;9.68;;;;;;;14.58;60.73;94715.63;5070436;28;20107;-76
2023/05/22 03:21:48;;;;;;;13.60;9.38;;;;;;;14.59;60.79;94711.63;5068123;28;20123;-76
2023/05/22 03:24:14;;;;;;;13.35;9.23;;;;;;;14.59;60.60;94722.69;5066377;28;20132;-75
2023/05/22 03:26:40;;;;;;;11.98;8.85;;;;;;;14.56;60.75;94713.28;5068113;28;20029;-75
2023/05/22 03:29:06;;;;;;;21.60;9.75;;;;;;;14.53;60.62;94719.03;5049578;28;20021;-78
2023/05/22 03:31:32;;;;;;;15.45;9.32;;;;;;;14.50;60.56;94712.41;5069237;28;20057;-76
2023/05/22 03:33:58;;;;;;;17.60;9.45;;;;;;;14.51;60.60;94711.19;5066784;28;20047;-76
2023/05/22 03:36:24;;;;;;;13.88;9.35;;;;;;;14.49;60.53;94713.66;5051086;28;20033;-75
2023/05/22 03:38:50;;;;;;;11.65;9.10;;;;;;;14.47;60.84;94709.81;5068551;28;20035;-76
2023/05/22 03:41:16;;;;;;;17.52;9.60;;;;;;;14.47;61.15;94716.13;5066503;28;20035;-76
2023/05/22 03:43:41;;;;;;;14.43;10.05;;;;;;;14.46;60.69;94719.34;5051069;28;20035;-75
2023/05/22 03:46:06;;;;;;;15.10;10.02;;;;;;;14.46;60.60;94711.03;5049126;28;20028;-75
2023/05/22 03:48:32;;;;;;;14.50;9.18;;;;;;;14.46;60.59;94717.34;5051021;28;20027;-76
2023/05/22 03:50:58;;;;;;;16.13;9.48;;;;;;;14.47;60.42;94715.34;5067054;28;20411;-75
2023/05/22 03:53:23;;;;;;;17.48;9.68;;;;;;;14.49;60.46;94719.19;5067700;28;20032;-76
2023/05/22 03:55:49;;;;;;;18.98;10.10;;;;;;;14.48;60.68;94720.41;5070254;28;20036;-75
2023/05/22 03:58:14;;;;;;;15.60;9.38;;;;;;;14.50;60.47;94725.47;5068693;28;20064;-75
2023/05/22 04:00:41;;;;;;;17.98;9.38;;;;;;;14.50;60.53;94728.25;5068569;28;20120;-76
2023/05/22 04:03:11;;;;;;;15.38;9.05;;;;;;;14.49;60.42;94732.25;5067123;28;20052;-76
2023/05/22 04:05:37;;;;;;;14.55;9.63;;;;;;;14.29;60.72;94724.47;5067549;28;20037;-77
2023/05/22 04:08:03;;;;;;;13.35;9.25;;;;;;;14.40;60.72;94730.25;5066882;28;20028;-75
2023/05/22 04:10:28;;;;;;;13.35;9.52;;;;;;;14.44;60.36;94730.06;5051138;28;20115;-75
2023/05/22 04:12:54;;;;;;;15.93;10.30;;;;;;;14.48;60.59;94730.72;5070990;28;20044;-76
2023/05/22 04:15:20;;;;;;;18.17;10.88;;;;;;;14.52;60.62;94729.31;5067940;28;20027;-74
2023/05/22 04:17:46;;;;;;;20.02;10.18;;;;;;;14.54;60.88;94729.59;5066003;28;20475;-75
2023/05/22 04:20:11;;;;;;;18.73;11.73;;;;;;;14.57;60.94;94730.69;5066209;28;20031;-74
2023/05/22 04:22:38;;;;;;;22.25;10.75;;;;;;;14.58;60.68;94732.97;5050042;28;20025;-75
2023/05/22 04:25:04;;;;;;;17.35;10.02;;;;;;;14.60;60.75;94719.44;5065394;28;20406;-76
2023/05/22 04:27:29;;;;;;;16.15;9.90;;;;;;;14.60;60.59;94726.97;5067070;28;20457;-75
2023/05/22 04:29:54;;;;;;;15.35;10.57;;;;;;;14.60;60.79;94721.44;5066109;28;20090;-76
2023/05/22 04:32:23;;;;;;;21.75;11.20;;;;;;;14.65;61.02;94728.34;5066851;28;20090;-77
2023/05/22 04:34:51;;;;;;;18.73;10.85;;;;;;;14.68;61.04;94732.91;5066733;28;20095;-76
2023/05/22 04:37:18;;;;;;;19.27;11.77;;;;;;;14.69;60.77;94735.25;5065945;28;20021;-76
2023/05/22 04:39:44;;;;;;;23.63;11.07;;;;;;;14.77;60.86;94733.66;5066736;28;20028;-75
2023/05/22 04:42:14;;;;;;;24.05;11.27;;;;;;;14.83;60.93;94733.78;5049199;28;20035;-76
2023/05/22 04:44:40;;;;;;;18.45;10.70;;;;;;;14.90;60.57;94747.25;5066741;28;20479;-76
2023/05/22 04:47:10;;;;;;;21.25;10.55;;;;;;;14.89;60.95;94729.13;5064742;28;20032;-75
2023/05/22 04:49:37;;;;;;;17.52;10.30;;;;;;;15.01;60.58;94741.97;5066538;28;20036;-75
2023/05/22 04:52:05;;;;;;;14.10;10.45;;;;;;;15.10;60.31;94741.16;5065045;28;20033;-76
2023/05/22 04:54:31;;;;;;;14.32;9.20;;;;;;;15.20;59.97;94744.66;5065749;28;20082;-75
2023/05/22 04:56:57;;;;;;;15.30;8.40;;;;;;;15.24;59.43;94739.69;5049246;28;20475;-76
2023/05/22 04:59:25;;;;;;;17.45;9.52;;;;;;;15.31;59.67;94748.41;5066013;28;20052;-75
2023/05/22 05:01:51;;;;;;;13.18;8.55;;;;;;;15.39;59.26;94748.81;5065695;28;20053;-75
2023/05/22 05:04:16;;;;;;;13.85;8.18;;;;;;;15.43;58.96;94741.09;5064747;28;20020;-74
2023/05/22 05:06:43;;;;;;;11.55;7.32;;;;;;;15.44;58.80;94744.63;5069081;28;20088;-75
2023/05/22 05:09:09;;;;;;;14.27;7.65;;;;;;;15.50;58.34;94749.03;5066325;28;20052;-75
2023/05/22 05:11:34;;;;;;;12.07;7.47;;;;;;;15.59;58.16;94740.63;5065690;28;20080;-76
2023/05/22 05:14:00;;;;;;;10.05;6.82;;;;;;;15.71;57.57;94741.66;5048352;28;20564;-76
2023/05/22 05:16:25;;;;;;;12.32;6.70;;;;;;;15.70;57.11;94748.44;5064888;28;20029;-76
2023/05/22 05:18:52;;;;;;;8.60;6.38;;;;;;;15.77;57.33;94750.84;5066758;28;20500;-75
2023/05/22 05:21:19;;;;;;;10.65;6.35;;;;;;;15.87;57.14;94755.06;5065372;28;20046;-75
2023/05/22 05:23:44;;;;;;;9.18;6.88;;;;;;;15.92;56.89;94751.63;5065864;28;20029;-75
2023/05/22 05:26:10;;;;;;;8.82;6.55;;;;;;;15.98;56.80;94750.97;5064923;28;20392;-75
2023/05/22 05:28:36;;;;;;;12.25;6.28;;;;;;;16.04;56.98;94752.59;5067073;28;20108;-75
2023/05/22 05:31:01;;;;;;;14.82;7.28;;;;;;;16.04;56.89;94743.50;5065314;28;20111;-75
2023/05/22 05:33:27;;;;;;;11.80;6.45;;;;;;;16.16;56.66;94751.53;5066536;28;20188;-74
2023/05/22 05:35:52;;;;;;;11.75;7.32;;;;;;;16.23;56.15;94761.50;5048536;28;20028;-76
2023/05/22 05:38:18;;;;;;;10.63;7.03;;;;;;;16.32;55.90;94755.09;5063938;28;20025;-75
2023/05/22 05:40:44;;;;;;;10.63;6.95;;;;;;;16.36;55.91;94752.91;5065501;28;20021;-75
2023/05/22 05:43:09;;;;;;;10.68;6.45;;;;;;;16.42;55.51;94754.50;5064808;28;20021;-76
2023/05/22 05:45:35;;;;;;;19.15;6.63;;;;;;;16.50;55.62;94754.13;5032346;28;20020;-76
2023/05/22 05:48:00;;;;;;;7.80;6.03;;;;;;;16.52;55.32;94752.41;5065055;28;20032;-75
2023/05/22 05:50:25;;;;;;;10.82;6.85;;;;;;;16.62;55.28;94751.03;5066790;28;20025;-75
2023/05/22 05:52:51;;;;;;;10.52;6.82;;;;;;;16.69;55.03;94761.00;5065958;28;20067;-76
2023/05/22 05:55:16;;;;;;;11.93;7.10;;;;;;;16.73;54.68;94765.13;5064244;28;20025;-75
2023/05/22 05:57:42;;;;;;;11.63;6.70;;;;;;;16.73;54.63;94756.03;5048448;28;20123;-75
2023/05/22 06:00:10;;;;;;;12.13;6.85;;;;;;;16.80;54.43;94754.84;5065108;28;20055;-74
2023/05/22 06:02:36;;;;;;;13.77;7.30;;;;;;;16.91;54.41;94761.34;5053526;28;20053;-75
2023/05/22 06:05:04;;;;;;;13.55;7.22;;;;;;;17.01;54.00;94762.00;5047005;28;20029;-75
2023/05/22 06:07:30;;;;;;;9.45;7.05;;;;;;;17.07;53.58;94762.06;5065302;28;20453;-76
2023/05/22 06:09:55;;;;;;;10.57;6.70;;;;;;;17.14;53.75;94758.88;5047294;28;20021;-75
2023/05/22 06:12:21;;;;;;;15.00;6.97;;;;;;;17.22;53.24;94766.34;5065772;28;20031;-78
2023/05/22 06:14:48;;;;;;;9.68;6.80;;;;;;;17.24;52.93;94766.59;5064707;28;20406;-75
2023/05/22 06:17:14;;;;;;;9.05;6.63;;;;;;;17.25;53.02;94768.13;5064873;28;20136;-75
2023/05/22 06:19:39;;;;;;;11.65;7.38;;;;;;;17.35;53.24;94762.47;5065377;28;20021;-75
2023/05/22 06:22:05;;;;;;;9.55;6.93;;;;;;;17.46;52.83;94770.94;5046624;28;20031;-75
2023/05/22 06:24:31;;;;;;;9.55;6.28;;;;;;;17.52;52.52;94766.22;5066755;28;20141;-76
2023/05/22 06:26:56;;;;;;;11.15;6.88;;;;;;;17.62;51.73;94766.84;5065002;28;20504;-76
2023/05/22 06:29:22;;;;;;;12.75;5.97;;;;;;;17.72;51.46;94768.25;5064742;28;20037;-76
2023/05/22 06:31:47;;;;;;;8.77;6.00;;;;;;;17.75;50.93;94770.06;5065220;28;20415;-73
2023/05/22 06:34:13;;;;;;;12.65;6.68;;;;;;;17.86;50.74;94766.63;5065091;28;20056;-75
2023/05/22 06:36:38;;;;;;;9.52;6.22;;;;;;;17.91;50.11;94768.72;5064578;28;20025;-75
2023/05/22 06:39:03;;;;;;;12.80;5.80;;;;;;;17.95;50.03;94769.25;5065074;28;20078;-76
2023/05/22 06:41:30;;;;;;;8.10;5.60;;;;;;;18.04;49.30;94763.53;5070019;28;20096;-75
2023/05/22 06:43:56;;;;;;;9.52;5.40;;;;;;;18.23;49.17;94764.75;5066968;28;20017;-76
2023/05/22 06:46:22;;;;;;;8.20;5.25;;;;;;;18.30;48.45;94758.75;5068444;28;20044;-76
2023/05/22 06:48:48;;;;;;;8.52;4.45;;;;;;;18.49;47.83;94758.41;5068646;28;20082;-76
2023/05/22 06:51:13;;;;;;;9.38;5.93;;;;;;;18.65;48.01;94757.03;5067860;28;20505;-76
2023/05/22 06:53:39;;;;;;;9.32;6.07;;;;;;;18.74;47.44;94757.63;5069757;28;20426;-76
2023/05/22 06:56:05;;;;;;;7.30;5.10;;;;;;;18.78;46.25;94762.97;5067249;28;20090;-76
2023/05/22 06:58:30;;;;;;;9.63;5.10;;;;;;;18.80;46.10;94763.22;5073152;28;20032;-76
2023/05/22 07:00:59;;;;;;;8.45;5.30;;;;;;;18.98;46.18;94765.66;5068070;28;20025;-76
2023/05/22 07:03:26;;;;;;;9.10;5.20;;;;;;;19.04;45.84;94760.13;5069107;28;20425;-76
2023/05/22 07:05:52;;;;;;;9.23;4.60;;;;;;;19.09;45.77;94753.81;5068201;28;20498;-77
2023/05/22 07:08:17;;;;;;;7.28;4.22;;;;;;;19.19;45.23;94757.94;5069301;28;20039;-76
2023/05/22 07:10:43;;;;;;;9.25;4.32;;;;;;;19.28;44.69;94766.09;5067882;28;20103;-77
2023/05/22 07:13:08;;;;;;;6.50;4.00;;;;;;;19.45;44.58;94771.00;5068042;28;20024;-76
2023/05/22 07:15:33;;;;;;;11.45;4.43;;;;;;;19.57;44.59;94764.22;5069292;28;20402;-77
2023/05/22 07:17:59;;;;;;;6.72;4.45;;;;;;;19.70;44.62;94764.53;5068428;28;20048;-75
2023/05/22 07:20:25;;;;;;;9.73;4.60;;;;;;;19.75;44.39;94761.00;5067750;28;20479;-77
2023/05/22 07:22:50;;;;;;;11.85;5.68;;;;;;;19.91;44.38;94761.59;5066796;28;20021;-78
2023/05/22 07:25:15;;;;;;;12.88;5.53;;;;;;;20.03;43.95;94763.91;5068128;28;20040;-74
2023/05/22 07:27:41;;;;;;;21.38;5.28;;;;;;;20.13;43.17;94772.81;5066486;28;20033;-74
2023/05/22 07:30:08;;;;;;;8.45;4.30;;;;;;;20.23;43.13;94762.16;5067386;28;20025;-76
2023/05/22 07:32:33;;;;;;;7.40;4.30;;;;;;;20.31;42.50;94766.00;5066949;28;20024;-76
2023/05/22 07:35:02;;;;;;;6.93;4.30;;;;;;;20.31;42.20;94758.38;5066476;28;20427;-75
2023/05/22 07:37:30;;;;;;;6.20;3.95;;;;;;;20.48;41.68;94758.44;5067992;28;20054;-75
2023/05/22 07:39:56;;;;;;;8.00;4.07;;;;;;;20.61;41.37;94760.72;5067059;28;20173;-75
2023/05/22 07:42:22;;;;;;;7.55;4.60;;;;;;;20.64;40.57;94757.69;5068408;28;20028;-76
2023/05/22 07:44:47;;;;;;;4.35;3.67;;;;;;;20.67;40.53;94753.84;5068737;28;20151;-76
2023/05/22 07:47:13;;;;;;;5.70;4.07;;;;;;;20.83;40.35;94754.38;5069889;28;20115;-76
2023/05/22 07:49:38;;;;;;;5.95;4.13;;;;;;;20.99;40.53;94753.59;5068634;28;20115;-76
2023/05/22 07:52:04;;;;;;;7.65;4.22;;;;;;;21.13;40.08;94744.16;5067918;28;20027;-76
2023/05/22 07:54:30;;;;;;;8.15;3.80;;;;;;;21.26;40.02;94745.66;5070155;28;20104;-76
2023/05/22 07:56:56;;;;;;;8.20;4.00;;;;;;;21.36;39.88;94746.94;5067530;28;20024;-77
2023/05/22 07:59:22;;;;;;;7.15;4.10;;;;;;;21.49;39.85;94744.34;5067052;28;20418;-80
2023/05/22 08:01:48;;;;;;;10.20;5.22;;;;;;;21.61;40.45;94750.66;5050675;28;20115;-80
2023/05/22 08:04:14;;;;;;;9.23;5.82;;;;;;;21.81;42.31;94747.56;5086671;28;20040;-79
2023/05/22 08:06:42;;;;;;;7.15;4.82;;;;;;;21.93;41.80;94749.00;5068669;28;20154;-79
2023/05/22 08:09:08;;;;;;;6.55;5.18;;;;;;;22.16;42.09;94748.94;5066870;28;20103;-77
2023/05/22 08:11:34;;;;;;;9.55;4.68;;;;;;;22.21;39.96;94746.09;5067757;28;20747;-77
2023/05/22 08:14:02;;;;;;;7.00;4.13;;;;;;;22.42;38.87;94748.50;5066183;28;20525;-86
2023/05/22 08:16:27;;;;;;;7.15;3.45;;;;;;;22.53;38.09;94751.22;5066372;28;20032;-79
2023/05/22 08:19:16;;;;;;;8.80;4.25;;;;;;;22.63;37.41;94749.63;5065275;28;20395;-77
2023/05/22 08:21:41;;;;;;;5.60;3.55;;;;;;;22.70;37.29;94751.09;5025579;28;20119;-77
2023/05/22 08:24:07;;;;;;;6.85;3.90;;;;;;;22.76;37.14;94743.41;5008026;28;20033;-76
2023/05/22 08:26:32;;;;;;;7.95;3.40;;;;;;;22.84;36.80;94747.16;5024444;28;20049;-77
2023/05/22 08:28:58;;;;;;;7.43;3.15;;;;;;;22.91;34.79;94745.88;5008975;28;20025;-78
2023/05/22 08:31:24;;;;;;;6.28;3.35;;;;;;;22.85;34.62;94747.94;5008624;28;20136;-78
2023/05/22 08:33:50;;;;;;;6.63;3.67;;;;;;;23.00;35.43;94748.34;5008882;28;20075;-78
2023/05/22 08:36:15;;;;;;;8.40;3.28;;;;;;;23.10;34.86;94746.69;5024886;28;20448;-77
2023/05/22 08:38:41;;;;;;;8.40;3.95;;;;;;;23.19;35.06;94754.78;5009329;28;20070;-78
2023/05/22 08:41:07;;;;;;;6.05;3.03;;;;;;;23.29;35.41;94744.75;4991529;28;20407;-78
2023/05/22 08:43:34;;;;;;;6.47;2.97;;;;;;;23.32;34.06;94738.06;5026162;28;20189;-78
2023/05/22 08:46:02;;;;;;;11.13;3.72;;;;;;;23.57;34.17;94735.25;4992391;28;20065;-79
2023/05/22 08:48:30;;;;;;;5.65;3.55;;;;;;;23.83;34.87;94737.53;5019131;28;20088;-79
2023/05/22 08:50:57;;;;;;;4.18;2.70;;;;;;;23.79;30.83;94723.03;5009778;28;20037;-78
2023/05/22 08:53:23;;;;;;;5.55;2.75;;;;;;;23.94;30.20;94739.44;5008356;28;20467;-78
2023/05/22 08:55:50;;;;;;;3.17;2.03;;;;;;;24.05;29.97;94734.44;5008788;28;20115;-79
2023/05/22 08:58:16;;;;;;;6.07;2.72;;;;;;;24.24;31.33;94736.47;5038136;28;20162;-78
2023/05/22 09:00:42;;;;;;;10.27;3.00;;;;;;;24.37;31.00;94728.13;5067474;28;20032;-81
2023/05/22 09:03:12;;;;;;;4.40;2.88;;;;;;;24.35;29.96;94730.72;5066001;28;20051;-78
2023/05/22 09:05:39;;;;;;;4.80;3.10;;;;;;;24.61;29.79;94728.03;5065729;28;20025;-80
2023/05/22 09:08:07;;;;;;;8.45;3.40;;;;;;;24.65;29.90;94727.69;5065951;28;20556;-78
2023/05/22 09:10:33;;;;;;;4.22;2.70;;;;;;;24.78;29.14;94735.44;5065326;28;20035;-78
2023/05/22 09:13:00;;;;;;;6.47;2.58;;;;;;;24.70;29.96;94728.91;5065381;28;20033;-79
2023/05/22 09:15:28;;;;;;;8.70;3.28;;;;;;;24.71;30.54;94736.81;5066518;28;20078;-79
2023/05/22 09:17:53;;;;;;;6.38;4.10;;;;;;;24.80;30.07;94730.78;5048869;28;20032;-78
2023/05/22 09:20:19;;;;;;;7.60;3.63;;;;;;;24.71;30.60;94722.00;5048030;28;20028;-79
2023/05/22 09:22:46;;;;;;;6.05;3.65;;;;;;;24.63;29.78;94721.88;5066696;28;20020;-78
2023/05/22 09:25:17;;;;;;;7.40;3.72;;;;;;;24.53;29.75;94721.50;5065792;28;20025;-78
2023/05/22 09:27:47;;;;;;;4.85;2.78;;;;;;;24.40;30.36;94732.69;5046241;28;20033;-78
2023/05/22 09:30:19;;;;;;;5.25;3.03;;;;;;;24.34;30.35;94729.97;5065253;28;20119;-79
2023/05/22 09:32:47;;;;;;;11.20;4.35;;;;;;;24.24;31.23;94733.66;5064925;28;20025;-77
2023/05/22 09:35:13;;;;;;;7.00;3.58;;;;;;;24.18;31.55;94730.16;5079490;28;20036;-78
2023/05/22 09:37:40;;;;;;;6.75;3.20;;;;;;;24.11;32.21;94735.09;5080319;28;20041;-79
2023/05/22 09:40:07;;;;;;;10.15;4.88;;;;;;;24.19;31.72;94737.31;5067350;28;20031;-78
2023/05/22 09:42:33;;;;;;;9.75;5.10;;;;;;;24.35;31.80;94734.28;5077045;28;20040;-80
2023/05/22 09:45:04;;;;;;;11.38;5.82;;;;;;;24.41;31.89;94727.81;5084636;28;20527;-77
2023/05/22 09:47:29;;;;;;;11.75;5.68;;;;;;;24.49;31.70;94731.56;5069959;28;20031;-77
2023/05/22 09:49:57;;;;;;;10.13;4.90;;;;;;;24.59;31.78;94733.41;5076386;28;20040;-78
2023/05/22 09:52:23;;;;;;;8.27;4.97;;;;;;;24.66;31.46;94729.25;5085750;28;20486;-78
2023/05/22 09:54:48;;;;;;;8.45;3.80;;;;;;;24.74;31.60;94729.38;5082573;28;20115;-79
2023/05/22 09:57:17;;;;;;;6.82;3.65;;;;;;;24.71;31.75;94724.81;5086346;28;20031;-79
2023/05/22 09:59:43;;;;;;;6.78;3.67;;;;;;;24.60;31.54;94728.53;5084782;28;20027;-79
2023/05/22 10:02:08;;;;;;;5.38;3.50;;;;;;;24.54;32.06;94727.88;5084125;28;20093;-79
2023/05/22 10:04:37;;;;;;;6.85;3.42;;;;;;;24.45;32.25;94731.09;5068388;28;20379;-78
2023/05/22 10:07:02;;;;;;;6.03;3.58;;;;;;;24.40;32.63;94729.88;5067516;28;20478;-78
2023/05/22 10:09:33;;;;;;;7.93;3.22;;;;;;;24.27;32.46;94727.75;5085536;28;20030;-79
2023/05/22 10:12:02;;;;;;;5.85;3.50;;;;;;;24.26;32.55;94729.03;5084866;28;20032;-78
2023/05/22 10:14:29;;;;;;;5.57;3.42;;;;;;;24.07;33.07;94729.03;5086943;28;20032;-78
2023/05/22 10:16:55;;;;;;;7.20;3.42;;;;;;;24.08;33.27;94726.97;5089669;28;20024;-78
2023/05/22 10:19:25;;;;;;;6.85;3.70;;;;;;;24.04;33.03;94730.09;5088776;28;20024;-78
2023/05/22 10:21:52;;;;;;;5.78;3.92;;;;;;;23.90;32.84;94724.94;5088849;28;20035;-79
2023/05/22 10:24:17;;;;;;;5.90;3.17;;;;;;;23.93;32.95;94730.25;5088400;28;20538;-78
2023/05/22 10:26:43;;;;;;;7.93;3.28;;;;;;;23.79;32.75;94723.03;5089298;28;20028;-78
2023/05/22 10:29:17;;;;;;;6.40;3.17;;;;;;;23.77;32.77;94722.81;5089023;28;20073;-78
2023/05/22 10:32:01;;;;;;;6.65;4.47;;;;;;;23.66;33.00;94726.50;5089185;28;20088;-79
2023/05/22 10:34:57;;;;;;;5.97;4.05;;;;;;;23.56;32.70;94723.25;5089943;28;20047;-78
2023/05/22 10:37:46;;;;;;;6.68;4.30;;;;;;;23.43;32.83;94730.81;5030312;28;20047;-77
2023/05/22 10:40:30;;;;;;;5.75;3.53;;;;;;;23.12;34.44;94716.13;5093468;28;20114;-76
2023/05/22 10:42:59;;;;;;;6.63;3.67;;;;;;;22.98;35.88;94743.25;5088837;28;20032;-78
2023/05/22 10:45:28;;;;;;;8.95;5.13;;;;;;;22.95;37.71;94747.09;5088197;28;20020;-78
2023/05/22 10:48:08;;;;;;;8.68;4.78;;;;;;;22.78;39.64;94750.03;5088088;28;20028;-78
2023/05/22 10:50:34;;;;;;;7.07;3.80;;;;;;;22.69;39.82;94741.16;5087689;28;20027;-78
2023/05/22 10:53:25;;;;;;;5.97;4.00;;;;;;;22.47;40.06;94747.69;5071948;28;20035;-78
2023/05/22 10:55:55;;;;;;;6.68;3.63;;;;;;;22.38;38.95;94743.19;5087721;28;20032;-78
2023/05/22 10:58:30;;;;;;;9.85;3.40;;;;;;;21.74;40.45;94742.50;5087700;28;20024;-77
2023/05/22 11:01:10;;;;;;;5.38;3.75;;;;;;;21.34;42.03;94733.50;5087900;28;20028;-78
2023/05/22 11:03:54;;;;;;;5.88;3.70;;;;;;;21.43;42.01;94733.19;5088984;28;20040;-78
2023/05/22 11:06:45;;;;;;;7.07;4.20;;;;;;;21.62;41.52;94738.19;5088192;28;20028;-80
2023/05/22 11:09:44;;;;;;;5.70;3.83;;;;;;;21.69;42.59;94734.88;5070891;28;20513;-79
2023/05/22 11:12:29;;;;;;;5.22;4.15;;;;;;;21.88;42.16;94727.41;5006060;28;20864;-79
2023/05/22 11:15:04;;;;;;;8.48;4.10;;;;;;;22.04;40.66;94731.41;4991312;28;20029;-79
2023/05/22 11:17:31;;;;;;;9.27;3.40;;;;;;;22.24;40.13;94724.69;5006263;28;20172;-78
2023/05/22 11:19:58;;;;;;;9.75;4.03;;;;;;;22.44;39.62;94727.09;4974182;28;20188;-79
2023/05/22 11:22:39;;;;;;;5.88;3.60;;;;;;;22.44;40.10;94712.34;4989990;28;20046;-78
2023/05/22 11:25:10;;;;;;;6.28;3.35;;;;;;;22.65;39.91;94715.47;4989317;28;20037;-79
2023/05/22 11:27:36;;;;;;;6.63;4.05;;;;;;;22.76;39.61;94718.19;4990540;28;20030;-78
2023/05/22 11:30:04;;;;;;;8.30;4.18;;;;;;;22.76;39.27;94718.19;4989651;28;20037;-79
2023/05/22 11:32:29;;;;;;;6.60;4.13;;;;;;;22.78;39.56;94719.19;4991494;28;20038;-79